sensor_id;sensor_type;location;lat;lon;timestamp;pressure;altitude;pressure_sealevel;temperature;humidity
36726;BME280;44936;52.086;5.150;2022-12-18T00:02:17;103396.94;;;-1.26;100.00
36726;BME280;44936;52.086;5.150;2022-12-18T00:04:42;103336.22;;;-1.71;100.00
36726;BME280;44936;52.086;5.150;2022-12-18T00:07:08;103334.22;;;-1.64;100.00
36726;BME280;44936;52.086;5.150;2022-12-18T00:09:34;103366.66;;;-1.48;100.00
36726;BME280;44936;52.086;5.150;2022-12-18T00:12:03;103354.19;;;-1.43;100.00
36726;BME280;44936;52.086;5.150;2022-12-18T00:14:28;103370.41;;;-1.44;100.00
36726;BME280;44936;52.086;5.150;2022-12-18T00:17:01;103369.88;;;-1.31;100.00
36726;BME280;44936;52.086;5.150;2022-12-18T00:19:27;103352.53;;;-1.43;100.00
36726;BME280;44936;52.086;5.150;2022-12-18T00:21:53;103366.72;;;-1.37;100.00
36726;BME280;44936;52.086;5.150;2022-12-18T00:24:19;103360.03;;;-1.54;100.00
36726;BME280;44936;52.086;5.150;2022-12-18T00:26:44;103372.22;;;-1.43;100.00
36726;BME280;44936;52.086;5.150;2022-12-18T00:29:31;103362.75;;;-1.53;100.00
36726;BME280;44936;52.086;5.150;2022-12-18T00:32:04;103370.19;;;-1.56;100.00
36726;BME280;44936;52.086;5.150;2022-12-18T00:34:33;103358.09;;;-1.57;100.00
36726;BME280;44936;52.086;5.150;2022-12-18T00:37:08;103360.66;;;-1.57;100.00
36726;BME280;44936;52.086;5.150;2022-12-18T00:39:33;103368.53;;;-1.55;100.00
36726;BME280;44936;52.086;5.150;2022-12-18T00:41:59;103358.41;;;-1.62;100.00
36726;BME280;44936;52.086;5.150;2022-12-18T00:44:43;103353.41;;;-1.61;100.00
36726;BME280;44936;52.086;5.150;2022-12-18T00:47:09;103347.56;;;-1.68;100.00
36726;BME280;44936;52.086;5.150;2022-12-18T00:49:35;103347.34;;;-1.61;100.00
36726;BME280;44936;52.086;5.150;2022-12-18T00:52:00;103352.28;;;-1.73;100.00
36726;BME280;44936;52.086;5.150;2022-12-18T00:54:26;103352.88;;;-1.67;100.00
36726;BME280;44936;52.086;5.150;2022-12-18T00:56:52;103352.69;;;-1.68;100.00
36726;BME280;44936;52.086;5.150;2022-12-18T00:59:20;103283.19;;;-2.06;100.00
36726;BME280;44936;52.086;5.150;2022-12-18T01:01:47;103356.94;;;-1.69;100.00
36726;BME280;44936;52.086;5.150;2022-12-18T01:04:13;103364.38;;;-1.72;100.00
36726;BME280;44936;52.086;5.150;2022-12-18T01:06:40;103377.88;;;-1.75;100.00
36726;BME280;44936;52.086;5.150;2022-12-18T01:09:06;103381.81;;;-1.78;100.00
36726;BME280;44936;52.086;5.150;2022-12-18T01:11:34;103379.41;;;-1.77;100.00
36726;BME280;44936;52.086;5.150;2022-12-18T01:14:00;103363.34;;;-2.02;100.00
36726;BME280;44936;52.086;5.150;2022-12-18T01:16:26;103375.91;;;-1.77;100.00
36726;BME280;44936;52.086;5.150;2022-12-18T01:18:52;103365.47;;;-1.79;100.00
36726;BME280;44936;52.086;5.150;2022-12-18T01:21:19;103369.00;;;-1.87;100.00
36726;BME280;44936;52.086;5.150;2022-12-18T01:23:46;103353.75;;;-1.85;100.00
36726;BME280;44936;52.086;5.150;2022-12-18T01:26:16;103380.78;;;-1.80;100.00
36726;BME280;44936;52.086;5.150;2022-12-18T01:28:43;103370.44;;;-1.72;100.00
36726;BME280;44936;52.086;5.150;2022-12-18T01:31:26;103339.34;;;-1.83;100.00
36726;BME280;44936;52.086;5.150;2022-12-18T01:33:54;103365.78;;;-1.76;100.00
36726;BME280;44936;52.086;5.150;2022-12-18T01:36:30;103373.97;;;-1.80;100.00
36726;BME280;44936;52.086;5.150;2022-12-18T01:38:59;103380.69;;;-1.90;100.00
36726;BME280;44936;52.086;5.150;2022-12-18T01:41:27;103320.28;;;-2.13;100.00
36726;BME280;44936;52.086;5.150;2022-12-18T01:47:35;103365.59;;;-2.05;100.00
36726;BME280;44936;52.086;5.150;2022-12-18T01:50:15;103383.84;;;-1.84;100.00
36726;BME280;44936;52.086;5.150;2022-12-18T01:52:46;103372.47;;;-1.86;100.00
36726;BME280;44936;52.086;5.150;2022-12-18T01:55:37;103390.94;;;-1.82;100.00
36726;BME280;44936;52.086;5.150;2022-12-18T01:58:04;103382.59;;;-1.79;100.00
36726;BME280;44936;52.086;5.150;2022-12-18T02:00:30;103384.28;;;-1.88;100.00
36726;BME280;44936;52.086;5.150;2022-12-18T02:02:55;103374.84;;;-2.07;100.00
36726;BME280;44936;52.086;5.150;2022-12-18T02:05:40;103392.00;;;-1.88;100.00
36726;BME280;44936;52.086;5.150;2022-12-18T02:08:40;103395.22;;;-1.91;100.00
36726;BME280;44936;52.086;5.150;2022-12-18T02:14:13;103396.13;;;-1.90;100.00
36726;BME280;44936;52.086;5.150;2022-12-18T02:17:03;103403.50;;;-1.85;100.00
36726;BME280;44936;52.086;5.150;2022-12-18T02:27:39;103412.28;;;-2.19;100.00
36726;BME280;44936;52.086;5.150;2022-12-18T02:30:07;103400.50;;;-2.25;100.00
36726;BME280;44936;52.086;5.150;2022-12-18T02:32:37;103397.50;;;-2.39;100.00
36726;BME280;44936;52.086;5.150;2022-12-18T02:35:06;103295.94;;;-2.97;100.00
36726;BME280;44936;52.086;5.150;2022-12-18T02:37:34;103401.59;;;-2.49;100.00
36726;BME280;44936;52.086;5.150;2022-12-18T02:40:02;103404.50;;;-2.55;100.00
36726;BME280;44936;52.086;5.150;2022-12-18T02:42:29;103345.78;;;-2.87;100.00
36726;BME280;44936;52.086;5.150;2022-12-18T02:44:55;103395.59;;;-2.76;100.00
36726;BME280;44936;52.086;5.150;2022-12-18T02:47:23;103382.16;;;-2.65;100.00
36726;BME280;44936;52.086;5.150;2022-12-18T02:57:58;103318.47;;;-3.03;100.00
36726;BME280;44936;52.086;5.150;2022-12-18T03:00:34;103329.00;;;-2.92;100.00
36726;BME280;44936;52.086;5.150;2022-12-18T03:03:11;103304.28;;;-3.17;100.00
36726;BME280;44936;52.086;5.150;2022-12-18T03:05:45;103289.44;;;-3.02;100.00
36726;BME280;44936;52.086;5.150;2022-12-18T03:08:27;103279.53;;;-3.34;100.00
36726;BME280;44936;52.086;5.150;2022-12-18T03:10:59;103311.50;;;-3.04;100.00
36726;BME280;44936;52.086;5.150;2022-12-18T03:13:34;103306.88;;;-3.26;100.00
36726;BME280;44936;52.086;5.150;2022-12-18T03:16:03;103261.75;;;-3.50;100.00
36726;BME280;44936;52.086;5.150;2022-12-18T03:18:36;103328.59;;;-3.14;100.00
36726;BME280;44936;52.086;5.150;2022-12-18T03:21:05;103333.44;;;-3.17;100.00
36726;BME280;44936;52.086;5.150;2022-12-18T03:23:35;103300.97;;;-3.25;100.00
36726;BME280;44936;52.086;5.150;2022-12-18T03:26:07;103332.97;;;-3.13;100.00
36726;BME280;44936;52.086;5.150;2022-12-18T03:28:36;103280.47;;;-3.42;100.00
36726;BME280;44936;52.086;5.150;2022-12-18T03:31:05;103284.34;;;-3.37;100.00
36726;BME280;44936;52.086;5.150;2022-12-18T03:34:01;103263.84;;;-3.37;100.00
36726;BME280;44936;52.086;5.150;2022-12-18T03:36:34;103246.66;;;-3.64;100.00
36726;BME280;44936;52.086;5.150;2022-12-18T03:39:00;103310.47;;;-3.24;100.00
36726;BME280;44936;52.086;5.150;2022-12-18T03:41:48;103281.50;;;-3.40;100.00
36726;BME280;44936;52.086;5.150;2022-12-18T03:44:29;103195.97;;;-3.84;100.00
36726;BME280;44936;52.086;5.150;2022-12-18T03:49:30;103292.38;;;-3.17;100.00
36726;BME280;44936;52.086;5.150;2022-12-18T03:52:17;103269.28;;;-3.43;100.00
36726;BME280;44936;52.086;5.150;2022-12-18T03:54:46;103249.53;;;-3.52;100.00
36726;BME280;44936;52.086;5.150;2022-12-18T03:57:18;103253.75;;;-3.53;100.00
36726;BME280;44936;52.086;5.150;2022-12-18T03:59:47;103289.50;;;-3.54;100.00
36726;BME280;44936;52.086;5.150;2022-12-18T04:02:17;103281.97;;;-3.44;100.00
36726;BME280;44936;52.086;5.150;2022-12-18T04:04:44;103286.78;;;-3.56;100.00
36726;BME280;44936;52.086;5.150;2022-12-18T04:07:12;103241.50;;;-3.64;100.00
36726;BME280;44936;52.086;5.150;2022-12-18T04:09:42;103211.34;;;-3.75;100.00
36726;BME280;44936;52.086;5.150;2022-12-18T04:12:09;103239.09;;;-3.54;100.00
36726;BME280;44936;52.086;5.150;2022-12-18T04:14:38;103261.13;;;-3.64;100.00
36726;BME280;44936;52.086;5.150;2022-12-18T04:17:08;103267.78;;;-3.66;100.00
36726;BME280;44936;52.086;5.150;2022-12-18T04:19:34;103277.75;;;-3.69;100.00
36726;BME280;44936;52.086;5.150;2022-12-18T04:21:59;103281.97;;;-3.61;100.00
36726;BME280;44936;52.086;5.150;2022-12-18T04:24:39;103222.06;;;-3.88;100.00
36726;BME280;44936;52.086;5.150;2022-12-18T04:27:07;103274.69;;;-3.74;100.00
36726;BME280;44936;52.086;5.150;2022-12-18T04:29:36;103294.34;;;-3.57;100.00
36726;BME280;44936;52.086;5.150;2022-12-18T04:32:01;103286.19;;;-3.53;100.00
36726;BME280;44936;52.086;5.150;2022-12-18T04:34:32;103280.59;;;-3.49;100.00
36726;BME280;44936;52.086;5.150;2022-12-18T04:36:57;103273.53;;;-3.43;100.00
36726;BME280;44936;52.086;5.150;2022-12-18T04:39:24;103186.59;;;-4.09;100.00
36726;BME280;44936;52.086;5.150;2022-12-18T04:41:49;103260.09;;;-3.49;100.00
36726;BME280;44936;52.086;5.150;2022-12-18T04:44:15;103255.56;;;-3.43;100.00
36726;BME280;44936;52.086;5.150;2022-12-18T04:46:56;103251.75;;;-3.38;100.00
36726;BME280;44936;52.086;5.150;2022-12-18T04:49:27;103252.69;;;-3.63;100.00
36726;BME280;44936;52.086;5.150;2022-12-18T04:51:55;103269.88;;;-3.62;100.00
36726;BME280;44936;52.086;5.150;2022-12-18T04:54:20;103263.84;;;-3.72;100.00
36726;BME280;44936;52.086;5.150;2022-12-18T04:56:55;103295.38;;;-3.55;100.00
36726;BME280;44936;52.086;5.150;2022-12-18T04:59:20;103270.16;;;-3.94;100.00
36726;BME280;44936;52.086;5.150;2022-12-18T05:01:56;103296.44;;;-3.71;100.00
36726;BME280;44936;52.086;5.150;2022-12-18T05:04:26;103313.66;;;-3.61;100.00
36726;BME280;44936;52.086;5.150;2022-12-18T05:06:56;103316.97;;;-3.71;100.00
36726;BME280;44936;52.086;5.150;2022-12-18T05:09:23;103293.25;;;-3.94;100.00
36726;BME280;44936;52.086;5.150;2022-12-18T05:11:48;103332.13;;;-3.89;100.00
36726;BME280;44936;52.086;5.150;2022-12-18T05:14:23;103305.31;;;-3.93;100.00
36726;BME280;44936;52.086;5.150;2022-12-18T05:16:49;103283.97;;;-4.18;100.00
36726;BME280;44936;52.086;5.150;2022-12-18T05:19:38;103344.38;;;-3.87;100.00
36726;BME280;44936;52.086;5.150;2022-12-18T05:22:33;103356.44;;;-3.86;100.00
36726;BME280;44936;52.086;5.150;2022-12-18T05:25:19;103360.09;;;-3.75;100.00
36726;BME280;44936;52.086;5.150;2022-12-18T05:27:51;103369.28;;;-3.86;100.00
36726;BME280;44936;52.086;5.150;2022-12-18T05:34:01;103359.81;;;-3.69;100.00
36726;BME280;44936;52.086;5.150;2022-12-18T05:37:22;103349.69;;;-3.77;100.00
36726;BME280;44936;52.086;5.150;2022-12-18T05:40:01;103353.13;;;-3.85;100.00
36726;BME280;44936;52.086;5.150;2022-12-18T05:59:48;103326.88;;;-3.91;100.00
36726;BME280;44936;52.086;5.150;2022-12-18T06:10:23;103319.34;;;-3.81;100.00
36726;BME280;44936;52.086;5.150;2022-12-18T06:23:12;103292.47;;;-4.02;100.00
36726;BME280;44936;52.086;5.150;2022-12-18T06:25:55;103308.91;;;-4.00;100.00
36726;BME280;44936;52.086;5.150;2022-12-18T06:36:14;103303.34;;;-3.95;100.00
36726;BME280;44936;52.086;5.150;2022-12-18T06:39:05;103297.31;;;-3.96;100.00
36726;BME280;44936;52.086;5.150;2022-12-18T06:54:44;103263.09;;;-3.96;100.00
36726;BME280;44936;52.086;5.150;2022-12-18T07:20:39;103249.19;;;-3.90;100.00
36726;BME280;44936;52.086;5.150;2022-12-18T07:43:19;103197.59;;;-4.19;100.00
36726;BME280;44936;52.086;5.150;2022-12-18T07:45:52;103212.09;;;-4.02;100.00
36726;BME280;44936;52.086;5.150;2022-12-18T08:08:43;103192.34;;;-3.86;100.00
36726;BME280;44936;52.086;5.150;2022-12-18T08:12:03;103195.34;;;-3.73;100.00
36726;BME280;44936;52.086;5.150;2022-12-18T08:21:45;103195.06;;;-3.58;100.00
36726;BME280;44936;52.086;5.150;2022-12-18T08:24:11;103214.19;;;-3.55;100.00
36726;BME280;44936;52.086;5.150;2022-12-18T08:26:39;103214.06;;;-3.56;100.00
36726;BME280;44936;52.086;5.150;2022-12-18T08:29:05;103205.75;;;-3.54;100.00
36726;BME280;44936;52.086;5.150;2022-12-18T08:31:45;103213.44;;;-3.45;100.00
36726;BME280;44936;52.086;5.150;2022-12-18T08:34:11;103219.94;;;-3.57;100.00
36726;BME280;44936;52.086;5.150;2022-12-18T08:36:42;103191.13;;;-3.63;100.00
36726;BME280;44936;52.086;5.150;2022-12-18T08:39:07;103196.84;;;-3.57;100.00
36726;BME280;44936;52.086;5.150;2022-12-18T08:41:33;103113.50;;;-3.88;100.00
36726;BME280;44936;52.086;5.150;2022-12-18T08:44:02;103188.09;;;-3.42;100.00
36726;BME280;44936;52.086;5.150;2022-12-18T08:46:46;103183.38;;;-3.29;100.00
36726;BME280;44936;52.086;5.150;2022-12-18T08:49:12;103141.03;;;-3.60;100.00
36726;BME280;44936;52.086;5.150;2022-12-18T08:51:39;103179.91;;;-3.38;100.00
36726;BME280;44936;52.086;5.150;2022-12-18T08:54:06;103090.84;;;-3.84;100.00
36726;BME280;44936;52.086;5.150;2022-12-18T08:56:31;103185.91;;;-3.20;100.00
36726;BME280;44936;52.086;5.150;2022-12-18T08:58:58;103130.88;;;-3.41;100.00
36726;BME280;44936;52.086;5.150;2022-12-18T09:01:27;103173.50;;;-3.07;100.00
36726;BME280;44936;52.086;5.150;2022-12-18T09:03:53;103169.13;;;-3.08;100.00
36726;BME280;44936;52.086;5.150;2022-12-18T09:06:20;103130.97;;;-3.22;100.00
36726;BME280;44936;52.086;5.150;2022-12-18T09:08:46;103184.53;;;-3.08;100.00
36726;BME280;44936;52.086;5.150;2022-12-18T09:11:26;103189.63;;;-2.99;100.00
36726;BME280;44936;52.086;5.150;2022-12-18T09:13:53;103141.19;;;-3.14;100.00
36726;BME280;44936;52.086;5.150;2022-12-18T09:16:20;103156.06;;;-2.92;100.00
36726;BME280;44936;52.086;5.150;2022-12-18T09:18:46;103141.72;;;-2.90;100.00
36726;BME280;44936;52.086;5.150;2022-12-18T09:21:15;103125.63;;;-3.06;100.00
36726;BME280;44936;52.086;5.150;2022-12-18T09:23:41;103184.81;;;-2.69;100.00
36726;BME280;44936;52.086;5.150;2022-12-18T09:26:06;103129.34;;;-2.94;100.00
36726;BME280;44936;52.086;5.150;2022-12-18T09:28:32;103170.88;;;-2.62;100.00
36726;BME280;44936;52.086;5.150;2022-12-18T09:30:58;103087.56;;;-3.10;100.00
36726;BME280;44936;52.086;5.150;2022-12-18T09:33:23;103162.53;;;-2.60;100.00
36726;BME280;44936;52.086;5.150;2022-12-18T09:35:49;103143.66;;;-2.60;100.00
36726;BME280;44936;52.086;5.150;2022-12-18T09:38:18;103109.09;;;-2.64;100.00
36726;BME280;44936;52.086;5.150;2022-12-18T09:40:49;103129.16;;;-2.60;100.00
36726;BME280;44936;52.086;5.150;2022-12-18T09:43:28;103133.00;;;-2.46;100.00
36726;BME280;44936;52.086;5.150;2022-12-18T09:46:00;103139.13;;;-2.35;100.00
36726;BME280;44936;52.086;5.150;2022-12-18T09:48:35;103143.16;;;-2.29;100.00
36726;BME280;44936;52.086;5.150;2022-12-18T09:51:19;103080.13;;;-2.52;100.00
36726;BME280;44936;52.086;5.150;2022-12-18T09:53:52;103104.09;;;-2.24;100.00
36726;BME280;44936;52.086;5.150;2022-12-18T09:56:20;103124.53;;;-2.07;100.00
36726;BME280;44936;52.086;5.150;2022-12-18T09:58:57;103112.38;;;-2.00;100.00
36726;BME280;44936;52.086;5.150;2022-12-18T10:01:24;103113.91;;;-2.02;100.00
36726;BME280;44936;52.086;5.150;2022-12-18T10:03:52;103109.84;;;-1.89;100.00
36726;BME280;44936;52.086;5.150;2022-12-18T10:11:47;103115.16;;;-1.59;100.00
36726;BME280;44936;52.086;5.150;2022-12-18T10:14:26;103096.03;;;-1.71;100.00
36726;BME280;44936;52.086;5.150;2022-12-18T10:22:39;103068.66;;;-1.60;100.00
36726;BME280;44936;52.086;5.150;2022-12-18T10:28:13;103053.78;;;-1.54;100.00
36726;BME280;44936;52.086;5.150;2022-12-18T10:30:41;103083.59;;;-1.27;100.00
36726;BME280;44936;52.086;5.150;2022-12-18T10:33:12;103078.69;;;-1.24;100.00
36726;BME280;44936;52.086;5.150;2022-12-18T10:35:42;103026.50;;;-1.52;100.00
36726;BME280;44936;52.086;5.150;2022-12-18T10:40:58;103022.13;;;-1.43;100.00
36726;BME280;44936;52.086;5.150;2022-12-18T10:46:12;103012.78;;;-1.32;100.00
36726;BME280;44936;52.086;5.150;2022-12-18T10:51:21;103060.72;;;-1.04;100.00
36726;BME280;44936;52.086;5.150;2022-12-18T10:53:55;102997.06;;;-1.25;100.00
36726;BME280;44936;52.086;5.150;2022-12-18T10:56:21;103034.72;;;-0.97;100.00
36726;BME280;44936;52.086;5.150;2022-12-18T10:59:08;103016.41;;;-1.10;100.00
36726;BME280;44936;52.086;5.150;2022-12-18T11:01:57;103023.22;;;-0.90;100.00
36726;BME280;44936;52.086;5.150;2022-12-18T11:04:33;103021.97;;;-0.95;100.00
36726;BME280;44936;52.086;5.150;2022-12-18T11:07:04;103018.84;;;-0.91;100.00
36726;BME280;44936;52.086;5.150;2022-12-18T11:09:36;103013.56;;;-0.82;100.00
36726;BME280;44936;52.086;5.150;2022-12-18T11:12:04;103010.63;;;-0.77;100.00
36726;BME280;44936;52.086;5.150;2022-12-18T11:14:42;102917.25;;;-1.15;100.00
36726;BME280;44936;52.086;5.150;2022-12-18T11:17:22;102993.72;;;-0.83;100.00
36726;BME280;44936;52.086;5.150;2022-12-18T11:19:57;102993.69;;;-0.63;100.00
36726;BME280;44936;52.086;5.150;2022-12-18T11:22:30;102961.03;;;-0.84;100.00
36726;BME280;44936;52.086;5.150;2022-12-18T11:27:24;102986.50;;;-0.67;100.00
36726;BME280;44936;52.086;5.150;2022-12-18T11:29:50;102937.06;;;-0.83;100.00
36726;BME280;44936;52.086;5.150;2022-12-18T11:36:00;102956.47;;;-0.67;100.00
36726;BME280;44936;52.086;5.150;2022-12-18T11:38:33;102998.97;;;-0.51;100.00
36726;BME280;44936;52.086;5.150;2022-12-18T11:41:03;102989.59;;;-0.61;100.00
36726;BME280;44936;52.086;5.150;2022-12-18T11:43:38;102985.97;;;-0.53;100.00
36726;BME280;44936;52.086;5.150;2022-12-18T11:46:14;102953.91;;;-0.67;100.00
36726;BME280;44936;52.086;5.150;2022-12-18T11:48:49;102953.06;;;-0.45;100.00
36726;BME280;44936;52.086;5.150;2022-12-18T11:51:25;102980.25;;;-0.39;100.00
36726;BME280;44936;52.086;5.150;2022-12-18T11:53:53;102964.50;;;-0.32;100.00
36726;BME280;44936;52.086;5.150;2022-12-18T11:56:35;102856.84;;;-0.88;100.00
36726;BME280;44936;52.086;5.150;2022-12-18T12:02:30;102934.34;;;-0.33;100.00
36726;BME280;44936;52.086;5.150;2022-12-18T12:05:11;102929.06;;;-0.44;100.00
36726;BME280;44936;52.086;5.150;2022-12-18T12:14:12;102918.22;;;-0.30;100.00
36726;BME280;44936;52.086;5.150;2022-12-18T12:17:11;102845.50;;;-0.58;100.00
36726;BME280;44936;52.086;5.150;2022-12-18T12:24:53;102906.09;;;-0.31;100.00
36726;BME280;44936;52.086;5.150;2022-12-18T12:30:53;102849.59;;;-0.50;100.00
36726;BME280;44936;52.086;5.150;2022-12-18T12:33:43;102896.56;;;-0.10;100.00
36726;BME280;44936;52.086;5.150;2022-12-18T12:39:16;102849.44;;;-0.41;100.00
36726;BME280;44936;52.086;5.150;2022-12-18T12:41:45;102877.06;;;-0.29;100.00
36726;BME280;44936;52.086;5.150;2022-12-18T12:44:44;102870.22;;;-0.28;100.00
36726;BME280;44936;52.086;5.150;2022-12-18T12:47:39;102865.25;;;-0.37;100.00
36726;BME280;44936;52.086;5.150;2022-12-18T12:50:11;102872.19;;;-0.36;100.00
36726;BME280;44936;52.086;5.150;2022-12-18T12:52:44;102860.63;;;-0.41;100.00
36726;BME280;44936;52.086;5.150;2022-12-18T12:55:22;102816.59;;;-0.54;100.00
36726;BME280;44936;52.086;5.150;2022-12-18T13:06:29;102871.84;;;-0.18;100.00
36726;BME280;44936;52.086;5.150;2022-12-18T13:09:00;102838.31;;;-0.18;100.00
36726;BME280;44936;52.086;5.150;2022-12-18T13:11:36;102857.34;;;-0.06;100.00
36726;BME280;44936;52.086;5.150;2022-12-18T13:14:33;102836.22;;;-0.12;100.00
36726;BME280;44936;52.086;5.150;2022-12-18T13:20:03;102783.19;;;-0.42;100.00
36726;BME280;44936;52.086;5.150;2022-12-18T13:22:50;102850.84;;;-0.01;100.00
36726;BME280;44936;52.086;5.150;2022-12-18T13:25:34;102763.38;;;-0.53;100.00
36726;BME280;44936;52.086;5.150;2022-12-18T13:28:06;102836.47;;;-0.09;100.00
36726;BME280;44936;52.086;5.150;2022-12-18T13:38:34;102828.28;;;-0.15;100.00
36726;BME280;44936;52.086;5.150;2022-12-18T13:41:01;102823.97;;;-0.26;100.00
36726;BME280;44936;52.086;5.150;2022-12-18T13:43:46;102759.59;;;-0.47;100.00
36726;BME280;44936;52.086;5.150;2022-12-18T13:46:21;102725.94;;;-0.60;100.00
36726;BME280;44936;52.086;5.150;2022-12-18T13:51:26;102721.00;;;-0.57;100.00
36726;BME280;44936;52.086;5.150;2022-12-18T13:54:22;102802.94;;;-0.09;100.00
36726;BME280;44936;52.086;5.150;2022-12-18T13:56:49;102779.19;;;-0.27;100.00
36726;BME280;44936;52.086;5.150;2022-12-18T13:59:19;102768.44;;;-0.33;100.00
36726;BME280;44936;52.086;5.150;2022-12-18T14:01:52;102765.25;;;-0.41;100.00
36726;BME280;44936;52.086;5.150;2022-12-18T14:04:24;102711.25;;;-0.61;100.00
36726;BME280;44936;52.086;5.150;2022-12-18T14:07:06;102738.75;;;-0.50;100.00
36726;BME280;44936;52.086;5.150;2022-12-18T14:09:39;102709.88;;;-0.68;100.00
36726;BME280;44936;52.086;5.150;2022-12-18T14:12:06;102756.44;;;-0.33;100.00
36726;BME280;44936;52.086;5.150;2022-12-18T14:14:56;102794.63;;;-0.17;100.00
36726;BME280;44936;52.086;5.150;2022-12-18T14:17:22;102744.06;;;-0.37;100.00
36726;BME280;44936;52.086;5.150;2022-12-18T14:19:52;102787.13;;;-0.14;100.00
36726;BME280;44936;52.086;5.150;2022-12-18T14:22:21;102703.53;;;-0.61;100.00
36726;BME280;44936;52.086;5.150;2022-12-18T14:24:47;102684.00;;;-0.69;100.00
36726;BME280;44936;52.086;5.150;2022-12-18T14:27:36;102734.00;;;-0.34;100.00
36726;BME280;44936;52.086;5.150;2022-12-18T14:33:05;102753.56;;;-0.25;100.00
36726;BME280;44936;52.086;5.150;2022-12-18T14:35:32;102764.50;;;-0.28;100.00
36726;BME280;44936;52.086;5.150;2022-12-18T14:38:21;102751.50;;;-0.30;100.00
36726;BME280;44936;52.086;5.150;2022-12-18T14:40:55;102749.47;;;-0.34;100.00
36726;BME280;44936;52.086;5.150;2022-12-18T14:43:24;102751.16;;;-0.34;100.00
36726;BME280;44936;52.086;5.150;2022-12-18T14:45:50;102758.00;;;-0.35;100.00
36726;BME280;44936;52.086;5.150;2022-12-18T14:48:41;102745.75;;;-0.37;100.00
36726;BME280;44936;52.086;5.150;2022-12-18T14:51:24;102731.53;;;-0.54;100.00
36726;BME280;44936;52.086;5.150;2022-12-18T14:53:59;102756.97;;;-0.37;100.00
36726;BME280;44936;52.086;5.150;2022-12-18T14:56:37;102671.94;;;-0.80;100.00
36726;BME280;44936;52.086;5.150;2022-12-18T14:59:20;102749.72;;;-0.31;100.00
36726;BME280;44936;52.086;5.150;2022-12-18T15:01:59;102740.66;;;-0.25;100.00
36726;BME280;44936;52.086;5.150;2022-12-18T15:04:42;102738.72;;;-0.28;100.00
36726;BME280;44936;52.086;5.150;2022-12-18T15:07:20;102738.78;;;-0.38;100.00
36726;BME280;44936;52.086;5.150;2022-12-18T15:18:05;102701.66;;;-0.52;100.00
36726;BME280;44936;52.086;5.150;2022-12-18T15:20:51;102720.16;;;-0.46;100.00
36726;BME280;44936;52.086;5.150;2022-12-18T15:26:04;102688.22;;;-0.48;100.00
36726;BME280;44936;52.086;5.150;2022-12-18T15:36:21;102706.47;;;-0.45;100.00
36726;BME280;44936;52.086;5.150;2022-12-18T15:38:57;102713.69;;;-0.41;100.00
36726;BME280;44936;52.086;5.150;2022-12-18T15:41:23;102709.84;;;-0.46;100.00
36726;BME280;44936;52.086;5.150;2022-12-18T15:43:51;102704.66;;;-0.58;100.00
36726;BME280;44936;52.086;5.150;2022-12-18T15:46:24;102706.13;;;-0.49;100.00
36726;BME280;44936;52.086;5.150;2022-12-18T15:48:51;102709.38;;;-0.52;100.00
36726;BME280;44936;52.086;5.150;2022-12-18T15:51:37;102681.09;;;-0.62;100.00
36726;BME280;44936;52.086;5.150;2022-12-18T15:54:23;102699.59;;;-0.56;100.00
36726;BME280;44936;52.086;5.150;2022-12-18T15:57:11;102652.81;;;-0.72;100.00
36726;BME280;44936;52.086;5.150;2022-12-18T15:59:50;102658.88;;;-0.72;100.00
36726;BME280;44936;52.086;5.150;2022-12-18T16:02:19;102692.25;;;-0.51;100.00
36726;BME280;44936;52.086;5.150;2022-12-18T16:04:45;102636.41;;;-0.84;100.00
36726;BME280;44936;52.086;5.150;2022-12-18T16:07:13;102644.28;;;-0.71;100.00
36726;BME280;44936;52.086;5.150;2022-12-18T16:09:39;102673.75;;;-0.46;100.00
36726;BME280;44936;52.086;5.150;2022-12-18T16:12:08;102678.00;;;-0.46;100.00
36726;BME280;44936;52.086;5.150;2022-12-18T16:14:39;102599.75;;;-0.92;100.00
36726;BME280;44936;52.086;5.150;2022-12-18T16:17:10;102647.94;;;-0.58;100.00
36726;BME280;44936;52.086;5.150;2022-12-18T16:19:36;102575.69;;;-0.93;100.00
36726;BME280;44936;52.086;5.150;2022-12-18T16:22:01;102648.22;;;-0.43;100.00
36726;BME280;44936;52.086;5.150;2022-12-18T16:24:33;102632.63;;;-0.44;100.00
36726;BME280;44936;52.086;5.150;2022-12-18T16:27:02;102621.75;;;-0.52;100.00
36726;BME280;44936;52.086;5.150;2022-12-18T16:29:28;102651.13;;;-0.38;100.00
36726;BME280;44936;52.086;5.150;2022-12-18T16:31:55;102629.41;;;-0.42;100.00
36726;BME280;44936;52.086;5.150;2022-12-18T16:34:29;102609.66;;;-0.53;100.00
36726;BME280;44936;52.086;5.150;2022-12-18T16:37:03;102630.22;;;-0.31;100.00
36726;BME280;44936;52.086;5.150;2022-12-18T16:39:33;102613.56;;;-0.46;100.00
36726;BME280;44936;52.086;5.150;2022-12-18T16:42:00;102644.22;;;-0.28;100.00
36726;BME280;44936;52.086;5.150;2022-12-18T16:44:25;102537.53;;;-0.87;100.00
36726;BME280;44936;52.086;5.150;2022-12-18T16:46:51;102592.06;;;-0.47;100.00
36726;BME280;44936;52.086;5.150;2022-12-18T16:49:19;102559.22;;;-0.61;100.00
36726;BME280;44936;52.086;5.150;2022-12-18T16:51:47;102596.09;;;-0.39;100.00
36726;BME280;44936;52.086;5.150;2022-12-18T16:54:14;102637.50;;;-0.25;100.00
36726;BME280;44936;52.086;5.150;2022-12-18T16:56:40;102540.22;;;-0.73;100.00
36726;BME280;44936;52.086;5.150;2022-12-18T16:59:11;102611.72;;;-0.25;100.00
36726;BME280;44936;52.086;5.150;2022-12-18T17:01:42;102616.75;;;-0.27;100.00
36726;BME280;44936;52.086;5.150;2022-12-18T17:04:08;102590.25;;;-0.48;100.00
36726;BME280;44936;52.086;5.150;2022-12-18T17:06:39;102601.84;;;-0.31;100.00
36726;BME280;44936;52.086;5.150;2022-12-18T17:09:07;102531.06;;;-0.70;100.00
36726;BME280;44936;52.086;5.150;2022-12-18T17:11:56;102593.09;;;-0.33;100.00
36726;BME280;44936;52.086;5.150;2022-12-18T17:14:24;102623.72;;;-0.14;100.00
36726;BME280;44936;52.086;5.150;2022-12-18T17:16:51;102568.41;;;-0.53;100.00
36726;BME280;44936;52.086;5.150;2022-12-18T17:19:17;102565.47;;;-0.58;100.00